Historique des mesures à Cassis (13260), France
Quotidien Résumé Mars 30, 2017 Unités:  US    Métrique   Métrique/US
« Précédent (Jour)
Suivant (Jour) »
Quotidien Hebdomadaire Mensuel Annuel Période au choix
  Maximum: Minimum: Moyenne:
Température: 32 °F 54.1 °F 59 °F
Point de rosée: 32 °F 43.2 °F 46.9 °F
Humidité: Humidity % 58 % 61 %
Vitesse du vent: WindSpeedKMH mph 0.0 mph 2.1 mph
Rafales: WindSpeedGustKMH mph - -
Vent:- - SE
Pression: 0 in 30.2 in -
Précipitations: 0 in    
Historical Graphs
 
 
Mesures pour : Mars 30, 2017
Heure Temperature Point de rosée Pression Vent Vitesse du vent Rafales Humidité Pluie (par heure) Conditions
32 °F 32 °F 0 in Calm     Humidity % 0 in SoftwareType W/m2
00:11 56.7 °F 44.2 °F 30.2 in NNE 1.8 mph 1.8 mph 63 % 0 in open2300-1.11 W/m2
01:11 55.6 °F 43.5 °F 30.2 in North 2.9 mph 3.5 mph 64 % 0 in open2300-1.11 W/m2
02:11 55.4 °F 43.3 °F 30.2 in Calm   1.8 mph 64 % 0 in open2300-1.11 W/m2
03:11 55.2 °F 44.4 °F 30.2 in ENE 5.8 mph 5.8 mph 67 % 0 in open2300-1.11 W/m2
04:11 54.7 °F 43.5 °F 30.2 in Calm     66 % 0 in open2300-1.11 W/m2
05:11 54.1 °F 43.9 °F 30.2 in NE 1.8 mph 1.8 mph 68 % 0 in open2300-1.11 W/m2
06:11 54.3 °F 44.1 °F 30.2 in Calm   2.9 mph 68 % 0 in open2300-1.11 W/m2
07:11 55.4 °F 44.2 °F 30.2 in WNW 5.8 mph 7.6 mph 66 % 0 in open2300-1.11 W/m2
08:11 55.6 °F 44.4 °F 30.2 in Calm   5.5 mph 66 % 0 in open2300-1.11 W/m2
09:11 58.1 °F 46.2 °F 30.2 in SE 2.1 mph 2.1 mph 65 % 0 in open2300-1.11 W/m2
10:11 58.8 °F 46.9 °F 30.2 in SSE 3.2 mph 4.7 mph 65 % 0 in open2300-1.11 W/m2
11:11 62.4 °F 49.3 °F 30.2 in SE 2.6 mph 6.4 mph 63 % 0 in open2300-1.11 W/m2
12:11 66.9 °F 52.2 °F 30.2 in SE 5.0 mph 5.0 mph 59 % 0 in open2300-1.11 W/m2
13:11 68.2 °F 52.9 °F 30.2 in ESE 4.7 mph 4.7 mph 58 % 0 in open2300-1.11 W/m2
14:11 68 °F 53.1 °F 30.2 in SE 3.2 mph 8.2 mph 59 % 0 in open2300-1.11 W/m2
15:11 67.3 °F 53.1 °F 30.2 in SE 2.9 mph 6.1 mph 60 % 0 in open2300-1.11 W/m2
16:11 66.6 °F 53.1 °F 30.2 in SE 2.1 mph 5.8 mph 62 % 0 in open2300-1.11 W/m2
17:11 66 °F 53.1 °F 30.2 in SSE 3.2 mph 3.2 mph 63 % 0 in open2300-1.11 W/m2
18:11 65.1 °F 53.1 °F 30.2 in ESE 1.8 mph 5.5 mph 65 % 0 in open2300-1.11 W/m2
19:11 64.2 °F 51.3 °F 30.2 in Calm   2.1 mph 63 % 0 in open2300-1.11 W/m2
20:11 61.9 °F 47.8 °F 30.2 in Calm     60 % 0 in open2300-1.11 W/m2
21:11 58.8 °F 45.3 °F 30.2 in Calm     61 % 0 in open2300-1.11 W/m2
22:11 57.7 °F 44.1 °F 30.2 in Calm   1.8 mph 60 % 0 in open2300-1.11 W/m2
23:11 56.8 °F 43.2 °F 30.2 in NW 2.9 mph 5.0 mph 60 % 0 in open2300-1.11 W/m2
Observations météo à CASSIS
WU-History script by Weather Underground - 1 mb